createdAt,value
2018-04-10T00:02:00.415Z,91.10
2018-04-10T00:04:29.107Z,91.10
2018-04-10T00:06:57.821Z,91.00
2018-04-10T00:09:26.417Z,91.10
2018-04-10T00:11:55.268Z,91.20
2018-04-10T00:14:24.045Z,91.30
2018-04-10T00:16:53.371Z,91.30
2018-04-10T00:19:22.818Z,90.90
2018-04-10T00:21:52.002Z,91.00
2018-04-10T00:24:20.705Z,91.20
2018-04-10T00:26:49.412Z,91.30
2018-04-10T00:29:18.142Z,91.30
2018-04-10T00:31:46.943Z,91.20
2018-04-10T00:34:15.631Z,91.20
2018-04-10T00:36:44.237Z,91.10
2018-04-10T00:39:12.898Z,91.00
2018-04-10T00:41:41.681Z,91.00
2018-04-10T00:44:10.404Z,91.10
2018-04-10T00:46:39.191Z,91.40
2018-04-10T00:49:08.194Z,91.30
2018-04-10T00:51:37.665Z,91.40
2018-04-10T00:54:06.551Z,91.30
2018-04-10T00:56:35.210Z,91.70
2018-04-10T00:59:04.628Z,91.90
2018-04-10T01:01:34.177Z,92.00
2018-04-10T01:04:02.809Z,91.90
2018-04-10T01:06:31.461Z,92.00
2018-04-10T01:09:00.225Z,92.10
2018-04-10T01:11:28.968Z,92.70
2018-04-10T01:13:57.574Z,92.20
2018-04-10T01:16:26.351Z,92.10
2018-04-10T01:18:54.971Z,92.20
2018-04-10T01:21:24.580Z,92.00
2018-04-10T01:23:53.808Z,92.20
2018-04-10T01:26:22.370Z,92.20
2018-04-10T01:28:51.906Z,92.40
2018-04-10T01:31:20.510Z,92.30
2018-04-10T01:33:49.738Z,92.10
2018-04-10T01:36:18.466Z,92.10
2018-04-10T01:38:46.999Z,91.60
2018-04-10T01:41:15.708Z,91.70
2018-04-10T01:43:44.364Z,91.90
2018-04-10T01:46:13.138Z,91.80
2018-04-10T01:48:41.785Z,92.00
2018-04-10T01:51:10.809Z,92.20
2018-04-10T01:53:39.994Z,92.20
2018-04-10T01:56:09.931Z,92.20
2018-04-10T01:58:39.394Z,92.30
2018-04-10T02:01:08.094Z,92.30
2018-04-10T02:03:36.747Z,92.50
2018-04-10T02:06:05.519Z,92.70
2018-04-10T02:08:34.329Z,92.80
2018-04-10T02:11:03.125Z,92.60
2018-04-10T02:13:31.738Z,92.50
2018-04-10T02:16:00.441Z,92.40
2018-04-10T02:18:29.271Z,91.90
2018-04-10T02:20:58.030Z,91.90
2018-04-10T02:23:27.962Z,91.30
2018-04-10T02:25:58.137Z,91.00
2018-04-10T02:28:26.960Z,91.00
2018-04-10T02:30:55.709Z,90.80
2018-04-10T02:33:25.279Z,90.70
2018-04-10T02:35:53.807Z,90.60
2018-04-10T02:38:22.571Z,90.40
2018-04-10T02:40:51.310Z,90.40
2018-04-10T02:43:20.086Z,90.30
2018-04-10T02:45:49.538Z,90.30
2018-04-10T02:48:18.089Z,90.30
2018-04-10T02:50:47.273Z,90.40
2018-04-10T02:53:16.651Z,90.40
2018-04-10T02:55:47.148Z,90.90
2018-04-10T02:58:15.851Z,90.90
2018-04-10T03:00:44.633Z,90.90
2018-04-10T03:03:13.221Z,90.90
2018-04-10T03:05:42.790Z,90.90
2018-04-10T03:08:11.490Z,90.90
2018-04-10T03:10:40.052Z,91.60
2018-04-10T03:13:08.815Z,91.40
2018-04-10T03:15:37.831Z,91.50
2018-04-10T03:18:06.524Z,91.50
2018-04-10T03:20:35.432Z,91.40
2018-04-10T03:23:05.013Z,91.40
2018-04-10T03:25:33.931Z,91.50
2018-04-10T03:28:02.500Z,91.50
2018-04-10T03:30:31.197Z,91.40
2018-04-10T03:32:59.911Z,91.30
2018-04-10T03:35:28.718Z,91.60
2018-04-10T03:37:57.439Z,91.40
2018-04-10T03:40:26.109Z,91.30
2018-04-10T03:42:54.643Z,91.30
2018-04-10T03:45:23.387Z,91.00
2018-04-10T03:47:52.282Z,91.10
2018-04-10T03:50:21.572Z,90.70
2018-04-10T03:52:51.104Z,90.70
2018-04-10T03:55:20.575Z,90.80
2018-04-10T03:57:49.942Z,91.10
2018-04-10T04:00:18.776Z,90.70
2018-04-10T04:02:47.538Z,90.90
2018-04-10T04:05:16.256Z,91.30
2018-04-10T04:07:44.973Z,91.90
2018-04-10T04:10:13.592Z,92.20
2018-04-10T04:12:42.395Z,92.30
2018-04-10T04:15:11.213Z,92.40
2018-04-10T04:17:42.481Z,92.20
2018-04-10T04:20:30.079Z,92.40
2018-04-10T04:22:58.916Z,92.40
2018-04-10T04:25:27.734Z,91.90
2018-04-10T04:27:56.457Z,91.90
2018-04-10T04:30:25.125Z,91.70
2018-04-10T04:32:53.942Z,91.60
2018-04-10T04:35:22.755Z,91.70
2018-04-10T04:37:52.242Z,91.70
2018-04-10T04:40:22.100Z,92.10
2018-04-10T04:42:50.786Z,92.00
2018-04-10T04:45:20.454Z,92.30
2018-04-10T04:47:49.194Z,92.30
2018-04-10T04:50:17.987Z,92.20
2018-04-10T04:52:47.448Z,92.30
2018-04-10T04:55:16.963Z,92.60
2018-04-10T04:57:45.834Z,92.50
2018-04-10T05:00:14.824Z,92.30
2018-04-10T05:02:44.121Z,92.80
2018-04-10T05:05:13.940Z,92.80
2018-04-10T05:07:43.118Z,92.80
2018-04-10T05:10:12.105Z,92.70
2018-04-10T05:12:41.658Z,92.80
2018-04-10T05:15:10.363Z,92.80
2018-04-10T05:17:39.124Z,92.90
2018-04-10T05:20:07.884Z,92.90
2018-04-10T05:22:36.695Z,93.00
2018-04-10T05:25:05.485Z,93.10
2018-04-10T05:27:34.732Z,93.20
2018-04-10T05:30:03.809Z,93.20
2018-04-10T05:32:32.762Z,93.20
2018-04-10T05:35:03.158Z,93.40
2018-04-10T05:37:33.376Z,93.20
2018-04-10T05:40:02.223Z,93.10
2018-04-10T05:42:31.831Z,92.80
2018-04-10T05:45:01.403Z,92.70
2018-04-10T05:47:30.119Z,92.70
2018-04-10T05:49:58.871Z,92.70
2018-04-10T05:52:27.645Z,92.50
2018-04-10T05:54:57.422Z,92.50
2018-04-10T05:57:26.888Z,92.30
2018-04-10T05:59:55.606Z,92.30
2018-04-10T06:02:24.505Z,92.20
2018-04-10T06:04:54.077Z,92.00
2018-04-10T06:07:23.836Z,91.50
2018-04-10T06:09:53.283Z,91.30
2018-04-10T06:12:21.928Z,91.20
2018-04-10T06:14:50.817Z,91.10
2018-04-10T06:17:19.581Z,91.00
2018-04-10T06:19:49.246Z,90.10
2018-04-10T06:22:18.160Z,90.10
2018-04-10T06:24:47.896Z,88.40
2018-04-10T06:27:16.713Z,86.30
2018-04-10T06:29:46.565Z,86.40
2018-04-10T06:32:16.655Z,84.90
2018-04-10T06:34:47.737Z,84.50
2018-04-10T06:37:16.554Z,84.80
2018-04-10T06:39:45.467Z,84.00
2018-04-10T06:42:14.324Z,83.00
2018-04-10T06:44:43.199Z,83.00
2018-04-10T06:47:12.807Z,80.90
2018-04-10T06:49:41.619Z,82.80
2018-04-10T06:52:10.321Z,82.00
2018-04-10T06:54:39.040Z,78.20
2018-04-10T06:57:07.955Z,75.60
2018-04-10T06:59:36.756Z,76.30
2018-04-10T07:02:06.194Z,75.80
2018-04-10T07:04:36.191Z,74.20
2018-04-10T07:07:05.138Z,77.40
2018-04-10T07:09:34.039Z,78.00
2018-04-10T07:12:02.859Z,77.50
2018-04-10T07:14:31.539Z,75.80
2018-04-10T07:17:00.257Z,73.30
2018-04-10T07:19:28.781Z,72.40
2018-04-10T07:21:57.975Z,71.90
2018-04-10T07:24:26.914Z,69.60
2018-04-10T07:26:55.926Z,72.20
2018-04-10T07:29:24.893Z,71.70
2018-04-10T07:31:54.845Z,68.90
2018-04-10T07:34:24.062Z,68.90
2018-04-10T07:36:53.742Z,70.00
2018-04-10T07:39:22.838Z,71.90
2018-04-10T07:41:51.785Z,70.10
2018-04-10T07:44:20.652Z,68.40
2018-04-10T07:46:49.577Z,68.50
2018-04-10T07:49:18.257Z,66.90
2018-04-10T07:51:47.093Z,67.80
2018-04-10T07:54:16.100Z,67.10
2018-04-10T07:56:44.811Z,65.30
2018-04-10T07:59:13.332Z,63.20
2018-04-10T08:01:42.186Z,61.70
2018-04-10T08:04:11.809Z,61.10
2018-04-10T08:06:41.432Z,62.60
2018-04-10T08:09:10.299Z,64.10
2018-04-10T08:11:39.001Z,62.10
2018-04-10T08:14:07.743Z,59.60
2018-04-10T08:16:36.464Z,60.40
2018-04-10T08:19:05.338Z,56.90
2018-04-10T08:21:34.144Z,55.80
2018-04-10T08:24:04.096Z,55.00
2018-04-10T08:26:33.798Z,54.50
2018-04-10T08:29:02.552Z,58.50
2018-04-10T08:31:31.320Z,59.10
2018-04-10T08:34:00.636Z,57.10
2018-04-10T08:36:30.277Z,55.60
2018-04-10T08:38:59.210Z,54.50
2018-04-10T08:41:27.841Z,54.00
2018-04-10T08:43:56.805Z,55.00
2018-04-10T08:46:25.818Z,56.60
2018-04-10T08:48:54.643Z,57.10
2018-04-10T08:51:23.345Z,56.40
2018-04-10T08:53:52.142Z,54.60
2018-04-10T08:56:20.922Z,52.00
2018-04-10T08:58:50.257Z,57.70
2018-04-10T09:01:19.202Z,57.70
2018-04-10T09:03:48.199Z,58.50
2018-04-10T09:06:17.535Z,59.10
2018-04-10T09:08:47.067Z,61.80
2018-04-10T09:11:16.534Z,62.50
2018-04-10T09:13:46.081Z,61.20
2018-04-10T09:16:15.091Z,61.10
2018-04-10T09:18:45.504Z,60.70
2018-04-10T09:21:14.427Z,60.70
2018-04-10T09:23:44.017Z,60.10
2018-04-10T09:26:12.824Z,60.10
2018-04-10T09:28:41.631Z,59.70
2018-04-10T09:31:10.229Z,59.20
2018-04-10T09:33:40.450Z,61.90
2018-04-10T09:36:10.048Z,62.30
2018-04-10T09:38:40.133Z,59.00
2018-04-10T09:41:08.952Z,58.80
2018-04-10T09:43:37.677Z,58.30
2018-04-10T09:46:06.688Z,59.00
2018-04-10T09:48:35.489Z,61.50
2018-04-10T09:51:04.335Z,59.80
2018-04-10T09:53:33.008Z,60.20
2018-04-10T09:56:01.820Z,61.50
2018-04-10T09:58:30.619Z,61.70
2018-04-10T10:00:59.404Z,62.40
2018-04-10T10:03:30.059Z,64.30
2018-04-10T10:05:59.255Z,64.30
2018-04-10T10:08:28.005Z,65.90
2018-04-10T10:10:57.441Z,67.80
2018-04-10T10:13:26.339Z,67.90
2018-04-10T10:15:55.265Z,68.90
2018-04-10T10:18:25.089Z,67.50
2018-04-10T10:20:54.007Z,67.30
2018-04-10T10:23:22.823Z,68.20
2018-04-10T10:25:51.511Z,66.40
2018-04-10T10:28:20.228Z,62.30
2018-04-10T10:30:48.980Z,62.50
2018-04-10T10:33:18.484Z,59.80
2018-04-10T10:35:48.451Z,57.30
2018-04-10T10:38:17.256Z,57.00
2018-04-10T10:40:46.472Z,53.90
2018-04-10T10:43:15.507Z,53.60
2018-04-10T10:45:45.384Z,53.70
2018-04-10T10:48:14.128Z,53.60
2018-04-10T10:50:42.947Z,51.40
2018-04-10T10:53:11.688Z,49.10
2018-04-10T10:55:41.200Z,51.60
2018-04-10T10:58:10.666Z,49.60
2018-04-10T11:00:39.507Z,49.70
2018-04-10T11:03:08.965Z,50.40
2018-04-10T11:05:39.035Z,54.60
2018-04-10T11:08:07.889Z,54.60
2018-04-10T11:10:36.680Z,55.60
2018-04-10T11:13:05.250Z,55.50
2018-04-10T11:15:33.984Z,54.40
2018-04-10T11:18:02.660Z,53.80
2018-04-10T11:20:31.384Z,54.30
2018-04-10T11:23:00.106Z,56.30
2018-04-10T11:25:28.909Z,57.40
2018-04-10T11:27:57.829Z,55.00
2018-04-10T11:30:26.614Z,56.80
2018-04-10T11:32:56.214Z,56.20
2018-04-10T11:35:25.723Z,55.40
2018-04-10T11:37:55.136Z,55.60
2018-04-10T11:40:24.018Z,57.10
2018-04-10T11:42:52.931Z,55.70
2018-04-10T11:45:22.051Z,52.70
2018-04-10T11:47:50.851Z,52.30
2018-04-10T11:50:20.004Z,53.50
2018-04-10T11:52:48.839Z,52.90
2018-04-10T11:55:18.411Z,53.00
2018-04-10T11:57:47.117Z,53.00
2018-04-10T12:00:16.025Z,53.20
2018-04-10T12:02:45.334Z,51.00
2018-04-10T12:05:14.626Z,51.60
2018-04-10T12:07:44.812Z,54.30
2018-04-10T12:10:13.746Z,54.30
2018-04-10T12:12:42.960Z,54.70
2018-04-10T12:15:11.896Z,53.40
2018-04-10T12:17:40.712Z,48.70
2018-04-10T12:20:09.687Z,51.00
2018-04-10T12:22:38.708Z,52.80
2018-04-10T12:25:07.458Z,52.30
2018-04-10T12:27:36.213Z,54.00
2018-04-10T12:30:05.747Z,54.00
2018-04-10T12:32:34.572Z,56.20
2018-04-10T12:35:04.222Z,55.60
2018-04-10T12:37:33.841Z,55.40
2018-04-10T12:40:02.724Z,57.10
2018-04-10T12:42:31.416Z,55.90
2018-04-10T12:45:00.234Z,54.50
2018-04-10T12:47:29.242Z,53.30
2018-04-10T12:49:57.943Z,50.70
2018-04-10T12:52:27.518Z,51.20
2018-04-10T12:54:56.217Z,52.00
2018-04-10T12:57:25.213Z,54.50
2018-04-10T12:59:53.881Z,55.70
2018-04-10T13:02:23.874Z,55.30
2018-04-10T13:04:53.407Z,55.10
2018-04-10T13:07:23.561Z,55.90
2018-04-10T13:09:52.425Z,56.90
2018-04-10T13:12:21.140Z,55.10
2018-04-10T13:14:50.232Z,53.00
2018-04-10T13:17:21.269Z,53.50
2018-04-10T13:19:51.267Z,56.00
2018-04-10T13:22:20.368Z,56.00
2018-04-10T13:24:49.277Z,51.10
2018-04-10T13:27:18.712Z,52.90
2018-04-10T13:29:47.533Z,52.20
2018-04-10T13:32:17.141Z,53.80
2018-04-10T13:34:46.843Z,53.90
2018-04-10T13:37:16.344Z,52.40
2018-04-10T13:39:45.914Z,53.60
2018-04-10T13:42:15.105Z,53.60
2018-04-10T13:44:44.768Z,53.10
2018-04-10T13:47:13.453Z,53.10
2018-04-10T13:49:42.258Z,54.10
2018-04-10T13:52:11.050Z,54.90
2018-04-10T13:54:39.918Z,55.50
2018-04-10T13:57:08.570Z,57.80
2018-04-10T13:59:38.145Z,56.00
2018-04-10T14:02:09.340Z,55.90
2018-04-10T14:04:38.697Z,54.50
2018-04-10T14:07:08.575Z,55.00
2018-04-10T14:09:37.357Z,55.00
2018-04-10T14:12:06.434Z,53.70
2018-04-10T14:14:35.399Z,53.60
2018-04-10T14:17:04.431Z,53.90
2018-04-10T14:19:33.263Z,52.90
2018-04-10T14:22:02.735Z,53.60
2018-04-10T14:24:31.888Z,56.80
2018-04-10T14:27:00.795Z,56.30
2018-04-10T14:29:29.557Z,58.30
2018-04-10T14:31:59.894Z,57.50
2018-04-10T14:34:29.981Z,57.40
2018-04-10T14:36:59.270Z,58.70
2018-04-10T14:39:28.539Z,59.90
2018-04-10T14:41:57.770Z,59.70
2018-04-10T14:44:27.266Z,61.30
2018-04-10T14:46:56.472Z,61.10
2018-04-10T14:49:25.673Z,60.30
2018-04-10T14:51:54.485Z,61.30
2018-04-10T14:54:24.234Z,61.00
2018-04-10T14:56:53.174Z,61.80
2018-04-10T14:59:22.611Z,59.90
2018-04-10T15:01:53.029Z,60.70
2018-04-10T15:04:23.718Z,59.10
2018-04-10T15:06:53.292Z,60.30
2018-04-10T15:09:22.774Z,62.90
2018-04-10T15:11:52.231Z,62.90
2018-04-10T15:14:21.706Z,62.30
2018-04-10T15:16:51.183Z,63.20
2018-04-10T15:19:20.215Z,62.40
2018-04-10T15:21:49.682Z,62.80
2018-04-10T15:24:19.644Z,63.50
2018-04-10T15:26:51.024Z,63.50
2018-04-10T15:29:20.507Z,63.50
2018-04-10T15:31:50.040Z,66.00
2018-04-10T15:34:20.278Z,66.90
2018-04-10T15:36:49.915Z,66.30
2018-04-10T15:39:19.492Z,65.30
2018-04-10T15:41:48.950Z,66.30
2018-04-10T15:44:20.261Z,64.60
2018-04-10T15:46:49.589Z,64.50
2018-04-10T15:49:20.011Z,65.60
2018-04-10T15:51:50.034Z,65.50
2018-04-10T15:54:19.394Z,66.80
2018-04-10T15:56:49.364Z,67.30
2018-04-10T15:59:18.585Z,66.60
2018-04-10T16:01:48.028Z,66.20
2018-04-10T16:04:17.551Z,67.20
2018-04-10T16:06:48.107Z,68.80
2018-04-10T16:09:18.376Z,68.10
2018-04-10T16:11:47.908Z,67.90
2018-04-10T16:14:18.339Z,68.10
2018-04-10T16:16:48.669Z,68.40
2018-04-10T16:19:19.668Z,68.30
2018-04-10T16:21:49.761Z,68.30
2018-04-10T16:24:19.313Z,68.60
2018-04-10T16:26:50.652Z,69.20
2018-04-10T16:29:20.019Z,69.20
2018-04-10T16:31:50.259Z,69.60
2018-04-10T16:34:19.631Z,70.40
2018-04-10T16:36:49.207Z,70.20
2018-04-10T16:39:19.810Z,70.20
2018-04-10T16:41:52.110Z,70.70
2018-04-10T16:44:21.996Z,71.70
2018-04-10T16:46:52.364Z,72.00
2018-04-10T16:49:25.564Z,72.30
2018-04-10T16:51:54.840Z,72.30
2018-04-10T16:54:24.276Z,71.70
2018-04-10T16:56:54.830Z,72.90
2018-04-10T16:59:26.206Z,73.20
2018-04-10T17:01:55.585Z,73.20
2018-04-10T17:04:25.942Z,74.10
2018-04-10T17:06:56.575Z,74.40
2018-04-10T17:09:26.618Z,74.40
2018-04-10T17:11:57.700Z,75.50
2018-04-10T17:14:28.928Z,75.50
2018-04-10T17:17:02.203Z,74.80
2018-04-10T17:19:33.286Z,73.90
2018-04-10T17:22:04.120Z,73.90
2018-04-10T17:24:33.887Z,74.40
2018-04-10T17:27:03.409Z,74.20
2018-04-10T17:29:33.692Z,74.00
2018-04-10T17:32:03.871Z,73.70
2018-04-10T17:34:33.627Z,73.40
2018-04-10T17:37:02.945Z,73.30
2018-04-10T17:39:32.915Z,73.00
2018-04-10T17:42:03.771Z,74.00
2018-04-10T17:44:34.565Z,74.10
2018-04-10T17:47:04.121Z,74.10
2018-04-10T17:49:34.157Z,73.90
2018-04-10T17:52:04.353Z,74.20
2018-04-10T17:54:33.849Z,74.30
2018-04-10T17:57:03.620Z,74.60
2018-04-10T17:59:33.491Z,75.10
2018-04-10T18:02:03.127Z,75.00
2018-04-10T18:04:33.020Z,75.50
2018-04-10T18:07:02.730Z,75.60
2018-04-10T18:09:32.210Z,75.60
2018-04-10T18:12:01.543Z,75.80
2018-04-10T18:14:32.019Z,75.50
2018-04-10T18:17:03.209Z,75.70
2018-04-10T18:19:33.532Z,76.10
2018-04-10T18:22:03.112Z,75.70
2018-04-10T18:24:32.888Z,75.90
2018-04-10T18:27:02.703Z,76.10
2018-04-10T18:29:34.274Z,74.90
2018-04-10T18:32:05.743Z,74.80
2018-04-10T18:34:35.848Z,74.70
2018-04-10T18:37:06.062Z,74.60
2018-04-10T18:39:36.075Z,74.60
2018-04-10T18:42:06.155Z,74.60
2018-04-10T18:44:35.753Z,75.10
2018-04-10T18:47:05.243Z,75.20
2018-04-10T18:49:35.537Z,76.10
2018-04-10T18:52:06.929Z,76.60
2018-04-10T18:54:36.461Z,76.60
2018-04-10T18:57:06.562Z,76.70
2018-04-10T18:59:37.670Z,76.60
2018-04-10T19:02:09.076Z,76.90
2018-04-10T19:04:39.783Z,76.80
2018-04-10T19:07:10.225Z,77.50
2018-04-10T19:09:40.945Z,77.70
2018-04-10T19:12:11.573Z,77.70
2018-04-10T19:14:41.323Z,77.90
2018-04-10T19:17:11.903Z,78.10
2018-04-10T19:19:44.054Z,79.40
2018-04-10T19:22:13.974Z,79.30
2018-04-10T19:24:43.368Z,79.40
2018-04-10T19:27:13.534Z,79.60
2018-04-10T19:29:43.948Z,79.60
2018-04-10T19:32:14.651Z,80.20
2018-04-10T19:34:45.557Z,80.00
2018-04-10T19:37:15.870Z,80.90
2018-04-10T19:39:45.763Z,80.80
2018-04-10T19:42:16.267Z,80.80
2018-04-10T19:44:45.647Z,81.40
2018-04-10T19:47:15.424Z,81.80
2018-04-10T19:49:44.948Z,82.00
2018-04-10T19:52:14.206Z,82.10
2018-04-10T19:54:44.537Z,82.30
2018-04-10T19:57:14.963Z,82.90
2018-04-10T19:59:45.956Z,83.20
2018-04-10T20:02:19.452Z,83.70
2018-04-10T20:04:49.363Z,83.60
2018-04-10T20:07:19.787Z,85.10
2018-04-10T20:09:49.322Z,85.10
2018-04-10T20:12:18.894Z,84.60
2018-04-10T20:14:49.244Z,84.60
2018-04-10T20:17:19.231Z,84.60
2018-04-10T20:19:49.267Z,84.80
2018-04-10T20:22:19.754Z,84.90
2018-04-10T20:24:50.180Z,85.30
2018-04-10T20:27:19.599Z,85.10
2018-04-10T20:29:50.863Z,85.60
2018-04-10T20:32:20.294Z,85.50
2018-04-10T20:34:49.883Z,85.80
2018-04-10T20:37:19.449Z,86.00
2018-04-10T20:39:49.852Z,86.30
2018-04-10T20:42:20.363Z,86.20
2018-04-10T20:44:51.351Z,86.50
2018-04-10T20:47:21.779Z,86.60
2018-04-10T20:49:51.448Z,86.60
2018-04-10T20:52:21.120Z,86.70
2018-04-10T20:54:50.652Z,87.10
2018-04-10T20:57:20.231Z,87.30
2018-04-10T20:59:49.735Z,87.40
2018-04-10T21:02:19.722Z,87.50
2018-04-10T21:04:50.360Z,87.50
2018-04-10T21:07:19.593Z,87.30
2018-04-10T21:09:48.940Z,87.60
2018-04-10T21:12:18.442Z,87.80
2018-04-10T21:14:48.015Z,87.40
2018-04-10T21:17:17.460Z,87.20
2018-04-10T21:19:46.551Z,87.10
2018-04-10T21:22:15.808Z,87.20
2018-04-10T21:24:46.028Z,87.50
2018-04-10T21:27:15.689Z,87.40
2018-04-10T21:29:45.715Z,87.90
2018-04-10T21:32:15.728Z,87.70
2018-04-10T21:34:45.848Z,87.90
2018-04-10T21:37:15.288Z,88.00
2018-04-10T21:39:45.663Z,88.20
2018-04-10T21:42:14.816Z,88.30
2018-04-10T21:44:44.667Z,88.40
2018-04-10T21:47:13.505Z,88.40
2018-04-10T21:49:42.420Z,88.40
2018-04-10T21:52:11.435Z,88.50
2018-04-10T21:54:40.350Z,88.40
2018-04-10T21:57:10.446Z,88.70
2018-04-10T21:59:39.624Z,88.80
2018-04-10T22:02:08.332Z,88.70
2018-04-10T22:04:38.180Z,89.00
2018-04-10T22:07:06.948Z,89.10
2018-04-10T22:09:35.959Z,89.40
2018-04-10T22:12:04.669Z,89.50
2018-04-10T22:14:33.378Z,89.60
2018-04-10T22:17:02.400Z,89.60
2018-04-10T22:19:32.825Z,89.30
2018-04-10T22:22:01.441Z,89.30
2018-04-10T22:24:30.794Z,89.30
2018-04-10T22:27:00.449Z,89.20
2018-04-10T22:29:29.823Z,89.90
2018-04-10T22:31:59.044Z,89.80
2018-04-10T22:34:29.132Z,89.40
2018-04-10T22:36:58.075Z,89.60
2018-04-10T22:39:26.988Z,89.70
2018-04-10T22:41:55.996Z,89.50
2018-04-10T22:44:25.003Z,89.80
2018-04-10T22:46:53.812Z,90.00
2018-04-10T22:49:23.080Z,90.00
2018-04-10T22:51:51.846Z,90.10
2018-04-10T22:54:28.005Z,90.20
2018-04-10T22:56:56.722Z,90.10
2018-04-10T22:59:25.499Z,90.10
2018-04-10T23:01:54.343Z,90.20
2018-04-10T23:04:23.107Z,90.30
2018-04-10T23:06:52.463Z,90.60
2018-04-10T23:09:21.094Z,91.10
2018-04-10T23:11:50.122Z,91.20
2018-04-10T23:14:19.384Z,91.50
2018-04-10T23:16:48.146Z,91.00
2018-04-10T23:19:17.229Z,90.90
2018-04-10T23:21:47.251Z,90.90
2018-04-10T23:24:16.110Z,90.80
2018-04-10T23:26:44.935Z,90.90
2018-04-10T23:29:13.724Z,90.80
2018-04-10T23:31:42.543Z,90.70
2018-04-10T23:34:11.160Z,90.70
2018-04-10T23:36:40.077Z,90.80
2018-04-10T23:39:08.892Z,90.90
2018-04-10T23:41:37.579Z,90.90
2018-04-10T23:44:06.417Z,90.90
2018-04-10T23:46:35.201Z,90.90
2018-04-10T23:49:03.835Z,90.90
2018-04-10T23:51:33.426Z,90.70
2018-04-10T23:54:03.287Z,91.00
2018-04-10T23:56:32.093Z,91.00
2018-04-10T23:59:00.899Z,91.30
